Time;durP1;ratioP1;P1;durP2;ratioP2;P2;SDS_P1;SDS_P2;PMS_P1;PMS_P2;Temp;Humidity;BMP_temperature;BMP_pressure;BME280_temperature;BME280_humidity;BME280_pressure;Samples;Min_cycle;Max_cycle;Signal;HPM_P1;HPM_P2
2021/12/07 00:01:49;;;;;;;;;;;0.50;99.90;;;-1.03;100.00;95105.56;10287675;28;1747;-75
2021/12/07 00:06:52;;;;;;;;;;;0.30;99.90;;;-1.11;100.00;95098.75;10295243;28;2247;-74
2021/12/07 00:11:56;;;;;;;;;;;0.30;99.90;;;-1.21;100.00;95099.25;10293252;28;1910;-74
2021/12/07 00:16:59;;;;;;;;;;;0.20;99.90;;;-1.18;100.00;95103.28;10291383;28;2271;-75
2021/12/07 00:22:02;;;;;;;;;;;0.30;99.90;;;-1.21;100.00;95099.25;10299003;28;2272;-75
2021/12/07 00:27:05;;;;;;;;;;;0.00;99.90;;;-1.18;100.00;95098.81;10294675;28;2263;-74
2021/12/07 00:32:20;;;;;;;;;;;0.20;99.90;;;-1.11;100.00;95091.63;10292957;28;2220;-76
2021/12/07 00:37:23;;;;;;;;;;;0.30;99.90;;;-1.14;100.00;95084.16;10290519;28;2033;-75
2021/12/07 00:42:26;;;;;;;;;;;0.20;99.90;;;-1.02;100.00;95076.31;10293101;28;1901;-75
2021/12/07 00:47:29;;;;;;;;;;;0.30;99.90;;;-0.85;100.00;95072.09;10296002;28;1926;-74
2021/12/07 00:52:32;;;;;;;;;;;0.20;99.90;;;-0.73;100.00;95069.53;10294342;28;2001;-75
2021/12/07 00:57:35;;;;;;;;;;;0.40;99.90;;;-0.64;100.00;95070.84;10295649;28;1885;-75
2021/12/07 01:02:38;;;;;;;;;;;0.50;99.90;;;-0.67;100.00;95063.38;10301707;28;1814;-75
2021/12/07 01:29:10;;;;;;;;;;;0.50;99.90;;;-0.68;100.00;95040.66;10284289;28;1969;-75
2021/12/07 01:34:36;;;;;;;;;;;0.70;99.90;;;-0.63;100.00;95037.34;10291380;28;1870;-74
2021/12/07 01:40:03;;;;;;;;;;;0.60;99.90;;;-0.64;100.00;95038.34;10289255;28;1910;-74
2021/12/07 01:51:05;;;;;;;;;;;0.70;99.90;;;-0.51;100.00;95040.03;10270274;28;1903;-74
2021/12/07 02:01:29;;;;;;;;;;;1.00;99.90;;;-0.11;99.42;95033.22;10285118;28;1818;-75
2021/12/07 02:06:32;;;;;;;;;;;0.80;99.90;;;0.05;97.79;95029.09;10283407;28;1874;-74
2021/12/07 02:11:45;;;;;;;;;;;1.10;99.90;;;0.08;96.64;95033.16;10291244;28;1918;-75
2021/12/07 02:16:58;;;;;;;;;;;1.10;99.90;;;0.19;95.49;95019.13;10271010;28;1868;-74
2021/12/07 02:22:04;;;;;;;;;;;1.30;99.90;;;0.12;94.47;95019.22;10275078;28;1880;-74
2021/12/07 02:27:15;;;;;;;;;;;1.30;99.90;;;0.13;94.00;95015.59;10270933;28;1831;-73
2021/12/07 02:32:38;;;;;;;;;;;1.50;99.90;;;0.15;93.44;95002.13;10290704;28;1990;-75
2021/12/07 02:37:41;;;;;;;;;;;1.30;99.90;;;0.11;93.93;94998.31;10295214;28;1943;-75
2021/12/07 02:42:44;;;;;;;;;;;1.30;99.90;;;-0.03;93.41;94995.09;10279371;28;2044;-74
2021/12/07 02:47:47;;;;;;;;;;;1.20;99.90;;;-0.07;94.09;94989.44;10282889;28;1977;-74
2021/12/07 02:52:50;;;;;;;;;;;1.10;99.90;;;0.04;94.55;95002.91;10288863;28;2106;-73
2021/12/07 02:57:53;;;;;;;;;;;1.20;99.90;;;0.12;93.79;94997.28;10280578;28;2246;-76
2021/12/07 03:03:00;;;;;;;;;;;1.20;99.90;;;0.14;93.52;94996.06;10282687;28;2079;-73
2021/12/07 03:08:30;;;;;;;;;;;1.20;99.90;;;0.19;92.71;94998.00;10265264;28;2093;-73
2021/12/07 03:29:36;;;;;;;;;;;1.30;99.90;;;0.04;100.00;95032.78;10279078;28;2063;-74
2021/12/07 03:34:39;;;;;;;;;;;1.30;99.90;;;-0.07;100.00;95037.00;10297126;28;2107;-73
2021/12/07 03:39:42;;;;;;;;;;;1.20;99.90;;;-0.24;100.00;95035.22;10269797;28;1984;-74
2021/12/07 03:44:45;;;;;;;;;;;1.00;99.90;;;-0.38;100.00;95040.69;10290156;28;1964;-75
2021/12/07 03:49:48;;;;;;;;;;;0.80;99.90;;;-0.34;100.00;95033.91;10290797;28;2005;-74
2021/12/07 03:54:52;;;;;;;;;;;0.80;99.90;;;-0.40;100.00;95031.34;10291547;28;1997;-75
2021/12/07 03:59:54;;;;;;;;;;;0.80;99.90;;;-0.32;100.00;95034.50;10299100;28;2067;-75
2021/12/07 04:05:01;;;;;;;;;;;0.70;99.90;;;-0.36;100.00;95033.34;10286963;28;2075;-74
2021/12/07 04:10:04;;;;;;;;;;;0.80;99.90;;;-0.39;100.00;95033.78;10300804;28;2048;-74
2021/12/07 04:15:07;;;;;;;;;;;0.80;99.90;;;-0.36;100.00;95032.53;10287714;28;2009;-75
2021/12/07 04:20:10;;;;;;;;;;;0.70;99.90;;;-0.38;100.00;95022.22;10288217;28;2072;-75
2021/12/07 04:25:13;;;;;;;;;;;0.70;99.90;;;-0.40;100.00;95031.34;10287057;28;1654;-75
2021/12/07 04:30:16;;;;;;;;;;;0.70;99.90;;;-0.44;100.00;95035.50;10291908;28;1979;-76
2021/12/07 04:35:19;;;;;;;;;;;0.70;99.90;;;-0.45;100.00;95021.47;10280023;28;1402;-76
2021/12/07 04:40:22;;;;;;;;;;;0.70;99.90;;;-0.39;100.00;95036.41;10292328;28;2016;-76
2021/12/07 04:45:34;;;;;;;;;;;0.70;99.90;;;-0.41;100.00;95037.69;10287884;28;2020;-75
2021/12/07 05:01:20;;;;;;;;;;;0.70;99.90;;;-0.40;100.00;95047.19;10296521;28;2098;-75
2021/12/07 05:06:27;;;;;;;;;;;1.30;99.90;;;-0.36;100.00;95046.53;10293168;28;1976;-75
2021/12/07 05:11:45;;;;;;;;;;;0.70;99.90;;;-0.32;100.00;95039.78;10290203;28;1962;-75
2021/12/07 05:16:59;;;;;;;;;;;0.80;99.90;;;-0.23;100.00;95045.56;10292608;28;2107;-74
2021/12/07 05:38:13;;;;;;;;;;;1.00;99.90;;;-0.10;100.00;95082.38;10265480;28;2068;-73
2021/12/07 05:43:15;;;;;;;;;;;1.00;99.90;;;-0.07;100.00;95079.25;10286523;28;2024;-74
2021/12/07 05:48:18;;;;;;;;;;;1.10;99.90;;;-0.05;100.00;95093.06;10293198;28;2009;-73
2021/12/07 05:53:21;;;;;;;;;;;1.00;99.90;;;0.00;100.00;95087.13;10293882;28;2080;-76
2021/12/07 05:58:24;;;;;;;;;;;2.00;99.90;;;0.00;100.00;95097.69;10280115;28;2109;-74
2021/12/07 06:03:27;;;;;;;;;;;1.10;99.90;;;-0.04;100.00;95097.31;10287081;28;2062;-72
2021/12/07 06:08:31;;;;;;;;;;;1.10;99.90;;;-0.03;100.00;95101.56;10282899;28;1991;-73
2021/12/07 06:13:34;;;;;;;;;;;1.10;99.90;;;0.01;100.00;95091.38;10291028;28;2322;-74
2021/12/07 06:18:38;;;;;;;;;;;1.10;99.90;;;0.03;100.00;95091.16;10319817;28;2056;-75
2021/12/07 06:23:41;;;;;;;;;;;1.10;99.90;;;0.05;100.00;95089.06;10294669;28;2056;-75
2021/12/07 06:28:45;;;;;;;;;;;1.20;99.90;;;0.10;100.00;95105.06;10288152;28;1869;-77
2021/12/07 06:33:48;;;;;;;;;;;1.20;99.90;;;0.14;100.00;95111.53;10282283;28;1985;-76
2021/12/07 06:38:51;;;;;;;;;;;1.40;99.90;;;0.20;100.00;95116.72;10264315;28;1950;-76
2021/12/07 06:43:54;;;;;;;;;;;1.30;99.90;;;0.22;100.00;95121.78;10261082;28;2237;-76
2021/12/07 06:48:56;;;;;;;;;;;1.30;99.90;;;0.22;100.00;95125.22;10291358;28;1897;-76
2021/12/07 06:53:59;;;;;;;;;;;1.30;99.90;;;0.25;100.00;95129.25;10288140;28;1897;-74
2021/12/07 06:59:02;;;;;;;;;;;1.30;99.90;;;0.32;100.00;95134.44;10284025;28;1956;-77
2021/12/07 07:04:07;;;;;;;;;;;1.40;99.90;;;0.38;100.00;95149.41;10288704;28;1887;-77
2021/12/07 07:09:10;;;;;;;;;;;1.50;99.90;;;0.39;100.00;95154.50;10295365;28;1913;-76
2021/12/07 07:14:16;;;;;;;;;;;1.50;99.90;;;0.42;100.00;95161.94;10292781;28;1936;-77
2021/12/07 07:19:19;;;;;;;;;;;1.50;99.90;;;0.53;100.00;95174.41;10293478;28;1883;-76
2021/12/07 07:24:22;;;;;;;;;;;1.60;99.90;;;0.62;100.00;95184.66;10287756;28;2042;-75
2021/12/07 07:29:24;;;;;;;;;;;1.60;99.90;;;0.65;100.00;95176.28;10284662;28;2024;-73
2021/12/07 07:34:28;;;;;;;;;;;1.70;99.90;;;0.82;100.00;95188.63;10282129;28;2045;-76
2021/12/07 07:39:31;;;;;;;;;;;2.00;99.90;;;0.89;100.00;95193.84;10287327;28;1884;-76
2021/12/07 07:44:34;;;;;;;;;;;1.90;99.90;;;0.95;100.00;95210.63;10284581;28;2004;-77
2021/12/07 07:49:37;;;;;;;;;;;2.00;99.90;;;1.01;100.00;95207.06;10278474;28;1953;-75
2021/12/07 07:54:39;;;;;;;;;;;2.10;99.90;;;1.00;100.00;95213.41;10289644;28;2028;-77
2021/12/07 07:59:43;;;;;;;;;;;3.10;99.90;;;1.09;100.00;95217.34;10298301;28;1898;-77
2021/12/07 08:04:47;;;;;;;;;;;2.10;99.90;;;1.10;100.00;95226.09;10269998;28;2016;-76
2021/12/07 08:09:50;;;;;;;;;;;2.10;99.90;;;0.98;100.00;95224.22;10269442;28;1989;-75
2021/12/07 08:14:53;;;;;;;;;;;2.30;99.90;;;1.11;100.00;95225.84;10268454;28;2023;-77
2021/12/07 08:19:56;;;;;;;;;;;2.20;99.90;;;1.21;100.00;95227.94;10276732;28;2001;-73
2021/12/07 08:24:58;;;;;;;;;;;2.50;99.90;;;1.22;100.00;95235.66;10290421;28;2075;-75
2021/12/07 08:30:01;;;;;;;;;;;2.30;99.90;;;1.27;100.00;95230.50;10284642;28;2109;-74
2021/12/07 08:35:04;;;;;;;;;;;2.20;99.90;;;1.29;100.00;95241.66;10292520;28;1933;-74
2021/12/07 08:40:08;;;;;;;;;;;2.40;99.90;;;1.24;100.00;95243.38;10311859;28;1941;-74
2021/12/07 08:45:11;;;;;;;;;;;2.40;99.90;;;1.38;100.00;95242.13;10289854;28;2342;-73
2021/12/07 08:50:14;;;;;;;;;;;2.40;99.90;;;1.57;100.00;95227.72;10290907;28;1973;-74
2021/12/07 09:00:37;;;;;;;;;;;2.60;99.90;;;1.58;100.00;95250.53;10297359;28;2043;-76
2021/12/07 09:05:40;;;;;;;;;;;2.70;99.90;;;1.30;100.00;95253.06;10282868;28;2038;-75
2021/12/07 09:10:43;;;;;;;;;;;2.60;99.90;;;1.26;100.00;95265.94;10284886;28;2056;-72
2021/12/07 09:15:46;;;;;;;;;;;2.40;99.90;;;1.32;100.00;95265.03;10288385;28;2104;-78
2021/12/07 09:20:49;;;;;;;;;;;2.40;99.90;;;1.31;100.00;95276.66;10275212;28;2259;-72
2021/12/07 09:25:51;;;;;;;;;;;2.40;99.90;;;1.38;100.00;95281.84;10274470;28;2259;-73
2021/12/07 09:30:54;;;;;;;;;;;2.50;99.90;;;1.41;100.00;95291.19;10280480;28;2012;-73
2021/12/07 09:35:57;;;;;;;;;;;2.60;99.90;;;1.34;100.00;95292.09;10273380;28;2225;-72
2021/12/07 09:41:00;;;;;;;;;;;2.50;99.90;;;1.38;100.00;95287.16;10273142;28;1955;-73
2021/12/07 09:46:03;;;;;;;;;;;2.40;99.90;;;1.65;100.00;95282.22;10271993;28;2296;-72
2021/12/07 09:51:06;;;;;;;;;;;2.70;99.90;;;1.77;100.00;95279.56;10279738;28;2244;-71
2021/12/07 09:56:09;;;;;;;;;;;2.80;99.90;;;1.59;100.00;95283.13;10277706;28;1898;-73
2021/12/07 10:01:12;;;;;;;;;;;2.80;99.90;;;1.55;100.00;95292.59;10289003;28;2195;-71
2021/12/07 10:06:15;;;;;;;;;;;2.70;99.90;;;1.57;100.00;95290.50;10298859;28;1976;-73
2021/12/07 10:11:18;;;;;;;;;;;2.70;99.90;;;1.79;100.00;95272.22;10290741;28;1939;-74
2021/12/07 10:16:21;;;;;;;;;;;2.80;99.90;;;2.02;100.00;95274.03;10266730;28;1894;-73
2021/12/07 10:21:25;;;;;;;;;;;3.00;99.90;;;1.93;99.42;95278.09;10279045;28;1866;-73
2021/12/07 10:26:28;;;;;;;;;;;3.00;99.90;;;2.12;98.14;95272.41;10287929;28;1925;-70
2021/12/07 10:31:30;;;;;;;;;;;3.10;99.90;;;2.13;99.64;95274.03;10283892;28;1931;-68
2021/12/07 10:36:33;;;;;;;;;;;3.10;99.90;;;2.34;97.83;95277.09;10279927;28;2156;-68
2021/12/07 10:41:37;;;;;;;;;;;3.20;99.90;;;2.60;94.11;95268.59;10285034;28;1851;-68
2021/12/07 10:46:39;;;;;;;;;;;3.60;99.90;;;3.31;92.24;95269.13;10256591;28;1938;-68
2021/12/07 10:51:42;;;;;;;;;;;3.90;99.90;;;3.34;88.16;95257.19;10267470;28;2072;-67
2021/12/07 10:56:46;;;;;;;;;;;4.30;99.90;;;3.67;87.75;95270.47;10274295;28;1991;-69
2021/12/07 11:01:49;;;;;;;;;;;4.40;99.90;;;3.42;86.36;95270.06;10278988;28;2319;-68
2021/12/07 11:06:52;;;;;;;;;;;4.50;99.90;;;3.51;86.39;95284.59;10262718;28;1961;-70
2021/12/07 11:11:55;;;;;;;;;;;4.50;99.90;;;3.29;86.86;95281.00;10271396;28;2030;-70
2021/12/07 11:16:58;;;;;;;;;;;4.30;99.90;;;3.19;88.11;95276.34;10278829;28;1936;-71
2021/12/07 11:22:01;;;;;;;;;;;4.20;99.90;;;3.34;86.70;95268.63;10284968;28;2200;-70
2021/12/07 11:32:25;;;;;;;;;;;4.30;99.90;;;3.35;85.29;95259.59;10285344;28;2283;-70
2021/12/07 11:37:28;;;;;;;;;;;4.30;99.90;;;3.47;86.40;95254.22;10293465;28;2030;-71
2021/12/07 11:42:31;;;;;;;;;;;4.30;99.90;;;3.32;83.65;95264.63;10295533;28;1949;-71
2021/12/07 11:47:34;;;;;;;;;;;4.40;99.90;;;3.05;85.33;95259.06;10297431;28;1495;-71
2021/12/07 11:52:37;;;;;;;;;;;4.20;99.90;;;3.02;85.13;95248.94;10294371;28;1914;-70
2021/12/07 11:57:39;;;;;;;;;;;4.00;99.90;;;3.14;85.93;95249.69;10306165;28;1677;-70
2021/12/07 12:02:43;;;;;;;;;;;4.10;99.90;;;3.37;83.73;95257.53;10292405;28;1748;-70
2021/12/07 12:07:46;;;;;;;;;;;4.30;99.90;;;3.41;85.08;95252.53;10302996;28;1920;-69
2021/12/07 12:12:49;;;;;;;;;;;4.30;99.90;;;3.62;83.05;95259.75;10298532;28;1975;-70
2021/12/07 12:17:52;;;;;;;;;;;4.40;99.90;;;3.31;82.61;95249.69;10290418;28;1899;-68
2021/12/07 12:22:55;;;;;;;;;;;4.30;99.90;;;3.53;81.82;95250.59;10299873;28;1934;-71
2021/12/07 12:27:58;;;;;;;;;;;4.50;99.90;;;3.70;83.10;95246.09;10303330;28;1914;-70
2021/12/07 12:33:01;;;;;;;;;;;4.50;99.90;;;3.93;81.89;95228.31;10301008;28;2100;-70
2021/12/07 12:38:04;;;;;;;;;;;4.80;99.90;;;3.54;80.96;95236.25;10296475;28;2233;-71
2021/12/07 12:43:07;;;;;;;;;;;4.70;99.90;;;3.36;82.96;95229.34;10302161;28;1368;-71
2021/12/07 12:48:09;;;;;;;;;;;4.50;99.90;;;3.37;82.68;95228.31;10294744;28;1759;-71
2021/12/07 12:53:12;;;;;;;;;;;4.50;99.90;;;3.07;82.51;95231.25;10300159;28;1918;-71
2021/12/07 12:58:15;;;;;;;;;;;4.30;99.90;;;3.04;85.72;95225.59;10299021;28;1829;-71
2021/12/07 13:03:18;;;;;;;;;;;4.20;99.90;;;2.85;84.84;95232.97;10284117;28;1969;-75
2021/12/07 13:08:21;;;;;;;;;;;4.10;99.90;;;2.70;85.01;95231.66;10253332;28;2249;-74
2021/12/07 13:13:24;;;;;;;;;;;3.90;99.90;;;2.55;86.61;95217.31;10278329;28;2033;-73
2021/12/07 13:18:31;;;;;;;;;;;3.80;99.90;;;2.50;86.88;95214.56;10252959;28;2327;-71
2021/12/07 13:23:35;;;;;;;;;;;3.70;99.90;;;2.56;85.25;95221.56;10273285;28;2039;-73
2021/12/07 13:28:38;;;;;;;;;;;3.70;99.90;;;2.62;85.39;95218.78;10287670;28;1953;-73
2021/12/07 13:33:41;;;;;;;;;;;3.70;99.90;;;2.54;85.79;95216.47;10268744;28;2009;-72
2021/12/07 13:38:44;;;;;;;;;;;3.70;99.90;;;2.36;86.80;95214.03;10280582;28;2123;-74
2021/12/07 13:43:47;;;;;;;;;;;3.60;99.90;;;2.31;86.61;95206.78;10278365;28;2133;-74
2021/12/07 13:48:50;;;;;;;;;;;3.50;99.90;;;2.39;85.70;95203.75;10277777;28;1949;-74
2021/12/07 13:53:53;;;;;;;;;;;3.50;99.90;;;2.35;86.21;95207.91;10261849;28;2490;-75
2021/12/07 13:58:56;;;;;;;;;;;3.50;99.90;;;2.35;87.85;95207.09;10278642;28;2020;-73
2021/12/07 14:03:59;;;;;;;;;;;3.50;99.90;;;2.48;86.19;95206.00;10270859;28;2159;-75
2021/12/07 14:09:03;;;;;;;;;;;3.60;99.90;;;2.52;87.42;95201.84;10273178;28;2196;-74
2021/12/07 14:14:06;;;;;;;;;;;3.60;99.90;;;2.64;84.91;95206.06;10263414;28;1967;-76
2021/12/07 14:19:09;;;;;;;;;;;3.60;99.90;;;2.45;85.05;95196.69;10266822;28;2054;-75
2021/12/07 14:24:18;;;;;;;;;;;3.90;99.90;;;2.26;85.40;95182.81;10254046;28;2248;-75
2021/12/07 14:29:21;;;;;;;;;;;3.70;99.90;;;2.08;86.81;95194.38;10275530;28;2184;-74
2021/12/07 14:34:24;;;;;;;;;;;3.40;99.90;;;1.89;87.14;95192.91;10269768;28;1921;-74
2021/12/07 14:39:27;;;;;;;;;;;3.40;99.90;;;1.80;88.43;95194.31;10273530;28;2073;-74
2021/12/07 14:44:30;;;;;;;;;;;3.70;99.90;;;1.70;90.46;95181.66;10280111;28;1965;-75
2021/12/07 14:49:33;;;;;;;;;;;3.00;99.90;;;1.59;89.75;95201.84;10271328;28;2026;-73
2021/12/07 14:54:36;;;;;;;;;;;2.90;99.90;;;1.57;90.34;95193.31;10258304;28;2213;-73
2021/12/07 14:59:40;;;;;;;;;;;2.90;99.90;;;1.52;90.13;95187.88;10284101;28;1913;-73
2021/12/07 15:04:43;;;;;;;;;;;2.80;99.90;;;1.33;90.94;95189.03;10264756;28;2099;-72
2021/12/07 15:09:46;;;;;;;;;;;2.70;99.90;;;1.14;92.83;95187.53;10273001;28;2017;-77
2021/12/07 15:14:49;;;;;;;;;;;2.60;99.90;;;1.01;93.00;95194.66;10259752;28;2011;-76
2021/12/07 15:19:52;;;;;;;;;;;2.50;99.90;;;1.00;93.48;95192.22;10274026;28;2051;-75
2021/12/07 15:24:55;;;;;;;;;;;2.40;99.90;;;1.12;93.30;95179.81;10275937;28;2255;-72
2021/12/07 15:29:58;;;;;;;;;;;2.30;99.90;;;1.33;91.36;95179.25;10273581;28;2239;-72
2021/12/07 15:35:01;;;;;;;;;;;2.40;99.90;;;1.27;92.14;95185.50;10279557;28;1975;-74
2021/12/07 15:40:04;;;;;;;;;;;2.50;99.90;;;0.98;93.04;95171.28;10282428;28;2231;-74
2021/12/07 15:45:07;;;;;;;;;;;2.40;99.90;;;0.76;94.65;95163.09;10277053;28;1957;-74
2021/12/07 15:50:11;;;;;;;;;;;2.20;99.90;;;0.60;94.96;95158.44;10263007;28;1939;-74
2021/12/07 15:55:14;;;;;;;;;;;2.20;99.90;;;0.45;97.60;95150.94;10279693;28;2046;-70
2021/12/07 16:00:17;;;;;;;;;;;2.80;99.90;;;0.32;96.93;95145.84;10281340;28;1877;-70
2021/12/07 16:05:20;;;;;;;;;;;1.80;99.90;;;0.19;98.26;95146.00;10273263;28;1933;-69
2021/12/07 16:10:25;;;;;;;;;;;1.70;99.90;;;0.09;99.35;95130.69;10280200;28;1950;-69
2021/12/07 16:15:28;;;;;;;;;;;1.60;99.90;;;-0.05;100.00;95124.78;10272235;28;2014;-70
2021/12/07 16:20:31;;;;;;;;;;;1.50;99.90;;;-0.12;100.00;95110.84;10278387;28;1906;-69
2021/12/07 16:25:38;;;;;;;;;;;1.40;99.90;;;-0.20;100.00;95111.13;10276419;28;1992;-69
2021/12/07 16:31:01;;;;;;;;;;;1.30;99.90;;;-0.25;100.00;95104.91;10275724;28;1911;-70
2021/12/07 16:36:04;;;;;;;;;;;1.20;99.90;;;-0.31;100.00;95101.34;10268573;28;1918;-70
2021/12/07 16:41:07;;;;;;;;;;;1.20;99.90;;;-0.40;100.00;95100.00;10269045;28;1909;-71
2021/12/07 16:46:10;;;;;;;;;;;1.10;99.90;;;-0.47;100.00;95083.44;10278830;28;1939;-69
2021/12/07 16:51:20;;;;;;;;;;;1.00;99.90;;;-0.44;100.00;95077.75;10284947;28;1964;-70
2021/12/07 16:56:43;;;;;;;;;;;1.00;99.90;;;-0.31;100.00;95067.81;10285211;28;1946;-69
2021/12/07 17:01:45;;;;;;;;;;;1.10;99.90;;;-0.10;100.00;95069.16;10282841;28;1877;-70
2021/12/07 17:06:48;;;;;;;;;;;1.10;99.90;;;-0.06;100.00;95069.53;10287859;28;1902;-69
2021/12/07 17:11:51;;;;;;;;;;;1.20;99.90;;;-0.05;100.00;95058.72;10260709;28;2036;-70
2021/12/07 17:16:54;;;;;;;;;;;1.20;99.90;;;-0.27;100.00;95047.03;10281239;28;2272;-72
2021/12/07 17:21:57;;;;;;;;;;;1.20;99.90;;;-0.38;100.00;95034.56;10276040;28;1921;-71
2021/12/07 17:27:00;;;;;;;;;;;1.10;99.90;;;-0.19;100.00;95027.41;10287519;28;1916;-70
2021/12/07 17:32:04;;;;;;;;;;;1.30;99.90;;;-0.18;100.00;95023.78;10282375;28;2028;-70
2021/12/07 17:37:07;;;;;;;;;;;1.10;99.90;;;-0.27;100.00;95016.13;10276207;28;1977;-71
2021/12/07 17:42:10;;;;;;;;;;;1.10;99.90;;;-0.26;100.00;95011.66;10270121;28;2278;-71
2021/12/07 17:47:13;;;;;;;;;;;1.60;99.90;;;-0.38;100.00;95005.53;10269586;28;2036;-71
2021/12/07 17:52:16;;;;;;;;;;;1.00;99.90;;;-0.44;100.00;94990.59;10280652;28;2020;-71
2021/12/07 17:57:19;;;;;;;;;;;1.00;99.90;;;-0.31;100.00;94987.78;10283362;28;1966;-71
2021/12/07 18:02:22;;;;;;;;;;;0.90;99.90;;;-0.37;100.00;94983.41;10283062;28;2022;-70
2021/12/07 18:07:25;;;;;;;;;;;0.90;99.90;;;-0.46;100.00;94974.97;10285406;28;1882;-70
2021/12/07 18:12:28;;;;;;;;;;;0.90;99.90;;;-0.61;100.00;94958.75;10290558;28;2231;-71
2021/12/07 18:17:46;;;;;;;;;;;0.80;99.90;;;-0.70;100.00;94952.97;10282769;28;1894;-70
2021/12/07 18:22:49;;;;;;;;;;;0.60;99.90;;;-0.76;100.00;94945.94;10271973;28;2279;-69
2021/12/07 18:27:52;;;;;;;;;;;0.40;99.90;;;-0.80;100.00;94931.59;10260024;28;2292;-72
2021/12/07 18:32:56;;;;;;;;;;;0.50;99.90;;;-0.73;100.00;94931.50;10277177;28;2069;-71
2021/12/07 18:37:59;;;;;;;;;;;0.70;99.90;;;-0.81;100.00;94929.97;10281540;28;1941;-70
2021/12/07 18:43:03;;;;;;;;;;;0.50;99.90;;;-0.72;100.00;94928.63;10277467;28;2343;-72
2021/12/07 18:48:06;;;;;;;;;;;0.60;99.90;;;-0.77;100.00;94925.03;10298512;28;2054;-72
2021/12/07 18:53:10;;;;;;;;;;;0.60;99.90;;;-0.85;100.00;94918.25;10289602;28;2098;-71
2021/12/07 18:58:13;;;;;;;;;;;0.50;99.90;;;-0.94;100.00;94907.22;10293077;28;1953;-71
2021/12/07 19:03:16;;;;;;;;;;;0.40;99.90;;;-1.04;100.00;94899.00;10292565;28;1908;-69
2021/12/07 19:08:20;;;;;;;;;;;0.40;99.90;;;-0.97;100.00;94894.44;10280345;28;1973;-71
2021/12/07 19:13:23;;;;;;;;;;;0.40;99.90;;;-1.14;100.00;94886.38;10278285;28;2247;-71
2021/12/07 19:18:26;;;;;;;;;;;0.30;99.90;;;-1.21;100.00;94877.72;10284600;28;2085;-70
2021/12/07 19:23:29;;;;;;;;;;;0.20;99.90;;;-1.14;100.00;94873.19;10272001;28;2032;-72
2021/12/07 19:28:32;;;;;;;;;;;0.10;99.90;;;-1.21;100.00;94861.06;10274314;28;2084;-71
2021/12/07 19:33:35;;;;;;;;;;;0.10;99.90;;;-1.19;100.00;94851.94;10269537;28;2001;-71
2021/12/07 19:38:38;;;;;;;;;;;0.20;99.90;;;-1.20;100.00;94847.69;10265363;28;2224;-71
2021/12/07 19:43:41;;;;;;;;;;;0.10;99.90;;;-1.29;100.00;94843.75;10249289;28;2062;-71
2021/12/07 19:48:45;;;;;;;;;;;0.00;99.90;;;-1.32;100.00;94823.09;10247888;28;1969;-73
2021/12/07 19:53:48;;;;;;;;;;;0.00;99.90;;;-1.37;100.00;94812.41;10271723;28;2009;-72
2021/12/07 19:58:51;;;;;;;;;;;0.00;99.90;;;-1.42;100.00;94810.44;10275305;28;2508;-71
2021/12/07 20:03:54;;;;;;;;;;;-0.10;99.90;;;-1.57;100.00;94803.97;10292781;28;1503;-72
2021/12/07 20:08:57;;;;;;;;;;;0.10;99.90;;;-1.58;100.00;94791.81;10288727;28;1590;-71
2021/12/07 20:14:00;;;;;;;;;;;-0.30;99.90;;;-1.67;100.00;94786.03;10275664;28;2049;-73
2021/12/07 20:19:03;;;;;;;;;;;-0.30;99.90;;;-1.73;100.00;94777.16;10306440;28;1889;-74
2021/12/07 20:24:06;;;;;;;;;;;-0.20;99.90;;;-1.77;100.00;94764.69;10299530;28;1889;-70
2021/12/07 20:29:10;;;;;;;;;;;-0.40;99.90;;;-1.71;100.00;94759.34;10297962;28;2021;-73
2021/12/07 20:34:13;;;;;;;;;;;-0.50;99.90;;;-1.70;100.00;94749.59;10298552;28;2077;-73
2021/12/07 20:39:16;;;;;;;;;;;-0.40;99.90;;;-1.79;100.00;94738.53;10298563;28;1937;-74
2021/12/07 20:44:20;;;;;;;;;;;-0.50;99.90;;;-1.85;100.00;94728.88;10297075;28;2053;-73
2021/12/07 20:49:24;;;;;;;;;;;-0.50;99.90;;;-1.89;100.00;94727.75;10291587;28;1862;-71
2021/12/07 20:54:27;;;;;;;;;;;-0.80;99.90;;;-2.07;100.00;94714.59;10296072;28;1948;-71
2021/12/07 20:59:50;;;;;;;;;;;-0.70;99.90;;;-1.94;100.00;94706.53;10297721;28;1866;-72
2021/12/07 21:04:53;;;;;;;;;;;-0.70;99.90;;;-1.94;100.00;94693.34;10299596;28;1877;-73
2021/12/07 21:09:57;;;;;;;;;;;;;;;-2.00;100.00;94683.72;10286747;28;1276;-72
2021/12/07 21:15:01;;;;;;;;;;;-0.20;99.90;;;-2.07;100.00;94675.09;10295418;28;1960;-71
2021/12/07 21:20:04;;;;;;;;;;;-0.60;99.90;;;-2.05;100.00;94667.75;10288855;28;1441;-71
2021/12/07 21:25:07;;;;;;;;;;;-0.50;99.90;;;-2.13;100.00;94652.28;10283735;28;1297;-72
2021/12/07 21:30:10;;;;;;;;;;;-0.80;99.90;;;-2.20;100.00;94636.56;10271714;28;1430;-73
2021/12/07 21:35:14;;;;;;;;;;;-0.90;99.90;;;-2.27;100.00;94612.97;10289004;28;1911;-73
2021/12/07 21:40:17;;;;;;;;;;;;;;;-2.36;100.00;94595.84;10292211;28;1695;-72
2021/12/07 21:45:21;;;;;;;;;;;;;;;-2.40;100.00;94592.06;10295335;28;1383;-73
2021/12/07 21:50:25;;;;;;;;;;;-1.20;99.90;;;-2.47;100.00;94599.25;10296146;28;1694;-73
2021/12/07 21:55:29;;;;;;;;;;;;;;;-2.50;100.00;94587.31;10298468;28;1910;-72
2021/12/07 22:00:33;;;;;;;;;;;;;;;-2.43;100.00;94581.97;10277052;28;1614;-72
2021/12/07 22:05:40;;;;;;;;;;;;;;;-2.46;100.00;94574.53;10285697;28;1419;-72
2021/12/07 22:10:45;;;;;;;;;;;;;;;-2.49;100.00;94569.69;10291692;28;1184;-72
2021/12/07 22:15:49;;;;;;;;;;;;;;;-2.55;100.00;94546.91;10282918;28;1923;-72
2021/12/07 22:20:52;;;;;;;;;;;-1.40;99.90;;;-2.61;100.00;94548.63;10292167;28;1443;-71
2021/12/07 22:25:55;;;;;;;;;;;;;;;-2.68;100.00;94539.19;10283858;28;1541;-72
2021/12/07 22:30:58;;;;;;;;;;;-1.60;99.90;;;-2.69;100.00;94519.16;10291471;28;1354;-71
2021/12/07 22:36:01;;;;;;;;;;;-1.50;99.90;;;-2.72;100.00;94508.06;10297910;28;2148;-71
2021/12/07 22:41:04;;;;;;;;;;;-1.50;99.90;;;-2.76;100.00;94495.59;10290904;28;1980;-74
2021/12/07 22:46:07;;;;;;;;;;;-1.50;99.90;;;-2.77;100.00;94493.97;10284679;28;1917;-71
2021/12/07 22:51:11;;;;;;;;;;;-1.50;99.90;;;-2.85;100.00;94492.47;10289030;28;1886;-71
2021/12/07 22:56:14;;;;;;;;;;;-1.60;99.90;;;-2.88;100.00;94482.38;10292341;28;1969;-71
2021/12/07 23:01:17;;;;;;;;;;;-1.70;99.90;;;-2.92;100.00;94485.69;10288525;28;1906;-71
2021/12/07 23:06:20;;;;;;;;;;;-1.70;99.90;;;-2.88;100.00;94478.94;10280521;28;1911;-71
2021/12/07 23:11:23;;;;;;;;;;;-1.70;99.90;;;-2.97;100.00;94462.69;10284802;28;1906;-72
2021/12/07 23:16:27;;;;;;;;;;;-1.70;99.90;;;-2.84;100.00;94452.00;10282761;28;1910;-73
2021/12/07 23:21:30;;;;;;;;;;;-1.70;99.90;;;-2.80;100.00;94450.53;10280947;28;2201;-71
2021/12/07 23:26:33;;;;;;;;;;;-1.80;99.90;;;-2.78;100.00;94435.31;10282277;28;1940;-73
2021/12/07 23:31:36;;;;;;;;;;;-1.60;99.90;;;-2.81;100.00;94414.72;10295768;28;1854;-72
2021/12/07 23:36:42;;;;;;;;;;;-1.50;99.90;;;-2.75;100.00;94395.41;10284615;28;1929;-72
2021/12/07 23:41:45;;;;;;;;;;;-1.50;99.90;;;-2.76;100.00;94391.19;10288378;28;1953;-70
2021/12/07 23:46:48;;;;;;;;;;;-1.60;99.90;;;-2.59;100.00;94380.81;10283606;28;2372;-72
2021/12/07 23:51:51;;;;;;;;;;;-1.50;99.90;;;-2.59;100.00;94380.03;10281113;28;2188;-72
2021/12/07 23:56:54;;;;;;;;;;;-1.50;99.90;;;-2.68;100.00;94391.88;10287998;28;1953;-71
